Time;durP1;ratioP1;P1;durP2;ratioP2;P2;SDS_P1;SDS_P2;PMS_P1;PMS_P2;Temp;Humidity;BMP_temperature;BMP_pressure;BME280_temperature;BME280_humidity;BME280_pressure;Samples;Min_cycle;Max_cycle;Signal;HPM_P1;HPM_P2
2022/12/07 00:01:11;;;;;;;37.95;15.00;;;;;;;;;;4962552;28;20051;-80
2022/12/07 00:03:39;;;;;;;36.35;15.75;;;;;;;;;;4961523;28;20051;-80
2022/12/07 00:06:06;;;;;;;39.08;15.48;;;;;;;;;;4962926;28;20059;-79
2022/12/07 00:08:33;;;;;;;38.92;15.35;;;;;;;;;;4970815;28;20664;-80
2022/12/07 00:11:02;;;;;;;42.78;17.05;;;;;;;;;;4955713;28;20047;-79
2022/12/07 00:13:32;;;;;;;43.35;16.48;;;;;;;;;;4955278;28;20067;-79
2022/12/07 00:16:02;;;;;;;44.38;16.77;;;;;;;;;;4955962;28;20546;-79
2022/12/07 00:18:29;;;;;;;44.33;16.33;;;;;;;;;;4956479;28;20043;-80
2022/12/07 00:21:02;;;;;;;40.08;16.15;;;;;;;;;;4954588;28;20059;-81
2022/12/07 00:23:28;;;;;;;43.45;16.33;;;;;;;;;;4950023;28;20821;-80
2022/12/07 00:25:55;;;;;;;43.25;16.33;;;;;;;;;;4949407;29;20131;-78
2022/12/07 00:28:21;;;;;;;40.28;16.50;;;;;;;;;;4955063;29;20047;-79
2022/12/07 00:30:48;;;;;;;42.75;16.83;;;;;;;;;;4954660;29;20051;-79
2022/12/07 00:33:14;;;;;;;44.15;15.95;;;;;;;;;;4955464;28;20044;-78
2022/12/07 00:35:40;;;;;;;45.38;16.35;;;;;;;;;;4956730;28;20062;-80
2022/12/07 00:38:07;;;;;;;40.28;15.55;;;;;;;;;;4956037;29;20055;-79
2022/12/07 00:40:37;;;;;;;39.30;16.30;;;;;;;;;;4955214;28;20071;-81
2022/12/07 00:43:03;;;;;;;46.15;16.20;;;;;;;;;;4958851;28;20062;-80
2022/12/07 00:45:30;;;;;;;41.50;15.40;;;;;;;;;;4959050;28;20047;-81
2022/12/07 00:47:56;;;;;;;45.28;16.13;;;;;;;;;;4969645;29;20054;-81
2022/12/07 00:50:23;;;;;;;41.22;15.75;;;;;;;;;;4970809;28;20061;-81
2022/12/07 00:52:49;;;;;;;40.53;15.48;;;;;;;;;;4977791;28;20127;-80
2022/12/07 00:55:16;;;;;;;38.22;15.02;;;;;;;;;;4963076;28;20047;-80
2022/12/07 00:57:42;;;;;;;40.78;16.75;;;;;;;;;;4955717;29;20134;-80
2022/12/07 01:00:08;;;;;;;42.03;16.02;;;;;;;;;;4954456;28;20855;-79
2022/12/07 01:02:35;;;;;;;41.05;16.45;;;;;;;;;;4957252;28;20054;-80
2022/12/07 01:05:01;;;;;;;41.65;14.88;;;;;;;;;;4959360;28;20051;-82
2022/12/07 01:07:28;;;;;;;37.03;15.73;;;;;;;;;;4955363;28;20055;-79
2022/12/07 01:09:54;;;;;;;39.75;14.82;;;;;;;;;;4954921;28;20393;-80
2022/12/07 01:12:20;;;;;;;37.70;14.10;;;;;;;;;;4954565;28;20527;-80
2022/12/07 01:14:47;;;;;;;33.40;14.43;;;;;;;;;;4953896;29;20415;-79
2022/12/07 01:17:14;;;;;;;37.97;15.52;;;;;;;;;;4955847;28;20067;-80
2022/12/07 01:19:40;;;;;;;36.20;14.65;;;;;;;;;;4971635;28;20058;-81
2022/12/07 01:22:07;;;;;;;36.38;14.25;;;;;;;;;;4955554;29;20066;-80
2022/12/07 01:24:33;;;;;;;39.03;14.35;;;;;;;;;;4943353;29;20060;-80
2022/12/07 01:27:00;;;;;;;35.45;14.18;;;;;;;;;;4935989;29;20078;-80
2022/12/07 01:29:26;;;;;;;37.58;14.27;;;;;;;;;;4934193;29;20047;-79
2022/12/07 01:31:53;;;;;;;36.33;14.68;;;;;;;;;;4935288;29;20047;-79
2022/12/07 01:34:19;;;;;;;40.20;15.13;;;;;;;;;;4934878;29;20081;-80
2022/12/07 01:36:46;;;;;;;37.38;14.43;;;;;;;;;;4935957;29;20062;-78
2022/12/07 01:39:12;;;;;;;39.75;14.73;;;;;;;;;;4934631;29;20497;-79
2022/12/07 01:41:40;;;;;;;35.95;14.15;;;;;;;;;;4936679;29;20055;-79
2022/12/07 01:44:20;;;;;;;36.30;15.13;;;;;;;;;;4936057;29;20052;-80
2022/12/07 01:46:53;;;;;;;34.78;13.77;;;;;;;;;;4938374;29;20055;-80
2022/12/07 01:49:39;;;;;;;37.15;14.25;;;;;;;;;;4939206;29;20115;-80
2022/12/07 01:52:17;;;;;;;39.13;14.32;;;;;;;;;;4949660;29;20059;-82
2022/12/07 01:54:44;;;;;;;38.40;14.77;;;;;;;;;;4972773;28;20048;-81
2022/12/07 01:57:11;;;;;;;37.03;14.52;;;;;;;;;;4954503;29;20055;-82
2022/12/07 01:59:38;;;;;;;36.90;15.20;;;;;;;;;;4955274;29;20115;-82
2022/12/07 02:02:07;;;;;;;34.70;14.73;;;;;;;;;;4954956;29;20044;-80
2022/12/07 02:04:35;;;;;;;35.28;14.57;;;;;;;;;;4935509;29;20059;-80
2022/12/07 02:07:02;;;;;;;30.00;12.95;;;;;;;;;;4934955;29;20078;-80
2022/12/07 02:09:34;;;;;;;30.67;12.43;;;;;;;;;;4935393;29;20060;-82
2022/12/07 02:12:14;;;;;;;;;;;;;;;;;;4936507;29;20051;-79
2022/12/07 02:14:40;;;;;;;27.33;11.70;;;;;;;;;;4955510;29;19925;-84
2022/12/07 02:17:07;;;;;;;32.67;13.57;;;;;;;;;;4956992;29;20058;-83
2022/12/07 02:19:33;;;;;;;31.52;12.45;;;;;;;;;;4950694;29;20055;-81
2022/12/07 02:22:12;;;;;;;26.92;12.13;;;;;;;;;;4937682;29;20065;-81
2022/12/07 02:24:46;;;;;;;27.38;11.30;;;;;;;;;;4943599;29;20158;-80
2022/12/07 02:27:32;;;;;;;32.80;12.65;;;;;;;;;;4940707;29;20048;-82
2022/12/07 02:30:02;;;;;;;26.75;12.35;;;;;;;;;;4936015;29;20056;-81
2022/12/07 02:32:38;;;;;;;27.90;12.15;;;;;;;;;;4934852;29;20428;-81
2022/12/07 02:35:25;;;;;;;28.33;11.38;;;;;;;;;;4935462;29;20043;-82
2022/12/07 02:37:58;;;;;;;29.30;10.98;;;;;;;;;;4927813;29;20070;-82
2022/12/07 02:40:31;;;;;;;26.73;10.75;;;;;;;;;;4935728;29;20052;-82
2022/12/07 02:43:10;;;;;;;24.80;10.02;;;;;;;;;;4934823;29;20059;-81
2022/12/07 02:45:38;;;;;;;22.80;9.93;;;;;;;;;;4951309;29;20062;-81
2022/12/07 02:48:05;;;;;;;25.52;9.93;;;;;;;;;;4935668;29;20151;-82
2022/12/07 02:50:32;;;;;;;25.60;10.38;;;;;;;;;;4936698;29;20055;-81
2022/12/07 02:52:58;;;;;;;24.27;9.75;;;;;;;;;;4935306;29;20222;-80
2022/12/07 02:55:31;;;;;;;24.17;10.00;;;;;;;;;;4935719;29;20051;-79
2022/12/07 02:58:06;;;;;;;21.63;9.65;;;;;;;;;;4935243;29;20135;-81
2022/12/07 03:00:39;;;;;;;20.05;7.90;;;;;;;;;;4937406;29;20059;-82
2022/12/07 03:03:11;;;;;;;20.90;8.60;;;;;;;;;;4936040;29;20056;-81
2022/12/07 03:05:56;;;;;;;19.48;8.32;;;;;;;;;;4936100;29;20051;-80
2022/12/07 03:08:26;;;;;;;17.33;7.82;;;;;;;;;;4936109;29;20044;-81
2022/12/07 03:10:52;;;;;;;19.17;8.32;;;;;;;;;;4937223;29;20052;-81
2022/12/07 03:13:39;;;;;;;18.45;7.10;;;;;;;;;;4935920;29;20110;-80
2022/12/07 03:16:16;;;;;;;17.88;7.35;;;;;;;;;;4936435;29;20068;-81
2022/12/07 03:18:52;;;;;;;17.50;6.32;;;;;;;;;;4949038;29;20047;-83
2022/12/07 03:21:21;;;;;;;21.33;6.70;;;;;;;;;;4954561;29;20111;-81
2022/12/07 03:23:53;;;;;;;13.80;6.18;;;;;;;;;;4942078;29;20043;-81
2022/12/07 03:26:21;;;;;;;14.48;6.68;;;;;;;;;;4942998;29;20055;-80
2022/12/07 03:28:52;;;;;;;12.77;5.63;;;;;;;;;;4941236;29;20465;-80
2022/12/07 03:31:23;;;;;;;12.35;5.43;;;;;;;;;;4942879;29;20075;-81
2022/12/07 03:34:16;;;;;;;13.30;5.72;;;;;;;;;;4941665;29;20107;-80
2022/12/07 03:36:45;;;;;;;11.98;5.40;;;;;;;;;;4937455;29;20067;-82
2022/12/07 03:39:11;;;;;;;10.80;5.28;;;;;;;;;;4947217;29;20509;-81
2022/12/07 03:41:38;;;;;;;15.02;4.95;;;;;;;;;;4959733;28;20047;-80
2022/12/07 03:44:10;;;;;;;14.38;5.32;;;;;;;;;;4956536;28;20055;-83
2022/12/07 03:46:37;;;;;;;11.73;4.80;;;;;;;;;;4957649;28;20497;-81
2022/12/07 03:49:22;;;;;;;9.93;4.50;;;;;;;;;;4958574;28;20156;-83
2022/12/07 03:52:00;;;;;;;10.70;4.43;;;;;;;;;;4957287;28;20063;-82
2022/12/07 03:54:38;;;;;;;10.13;4.20;;;;;;;;;;4956979;28;20515;-83
2022/12/07 03:57:05;;;;;;;8.43;4.38;;;;;;;;;;4957612;29;20055;-81
2022/12/07 03:59:32;;;;;;;11.27;4.60;;;;;;;;;;4956398;28;20055;-83
2022/12/07 04:02:03;;;;;;;10.73;4.93;;;;;;;;;;4957387;28;20055;-82
2022/12/07 04:04:29;;;;;;;10.10;4.72;;;;;;;;;;4954217;28;20051;-82
2022/12/07 04:06:56;;;;;;;11.35;4.28;;;;;;;;;;4957006;28;20484;-82
2022/12/07 04:09:22;;;;;;;8.35;4.30;;;;;;;;;;4956581;28;20393;-82
2022/12/07 04:11:49;;;;;;;10.38;4.45;;;;;;;;;;4956578;29;20134;-82
2022/12/07 04:14:18;;;;;;;8.95;4.28;;;;;;;;;;4955580;28;20576;-83
2022/12/07 04:16:45;;;;;;;9.23;4.22;;;;;;;;;;4958183;28;20051;-82
2022/12/07 04:19:12;;;;;;;9.05;4.03;;;;;;;;;;4957740;29;20051;-82
2022/12/07 04:21:39;;;;;;;7.15;4.07;;;;;;;;;;4957304;28;20516;-83
2022/12/07 04:24:05;;;;;;;6.63;3.53;;;;;;;;;;4971876;29;20051;-83
2022/12/07 04:26:32;;;;;;;10.90;3.75;;;;;;;;;;4955326;29;20040;-83
2022/12/07 04:28:59;;;;;;;6.63;3.60;;;;;;;;;;4964978;29;20058;-85
2022/12/07 04:31:31;;;;;;;8.35;3.72;;;;;;;;;;4972877;29;20047;-82
2022/12/07 04:33:57;;;;;;;6.75;2.92;;;;;;;;;;4958893;28;20039;-80
2022/12/07 04:36:24;;;;;;;7.70;3.22;;;;;;;;;;4957304;28;20052;-82
2022/12/07 04:38:52;;;;;;;7.72;3.85;;;;;;;;;;4955530;28;20179;-80
2022/12/07 04:41:18;;;;;;;7.20;3.28;;;;;;;;;;4955941;28;20059;-82
2022/12/07 04:43:46;;;;;;;8.48;3.55;;;;;;;;;;4953772;28;20478;-83
2022/12/07 04:46:12;;;;;;;10.43;3.45;;;;;;;;;;4956124;28;20059;-82
2022/12/07 04:48:39;;;;;;;9.00;4.20;;;;;;;;;;4956705;28;20125;-81
2022/12/07 04:51:05;;;;;;;7.28;3.75;;;;;;;;;;4956048;28;20083;-81
2022/12/07 04:53:31;;;;;;;8.30;3.90;;;;;;;;;;4953648;28;20419;-81
2022/12/07 04:55:58;;;;;;;7.35;3.67;;;;;;;;;;4956292;28;20047;-80
2022/12/07 04:58:24;;;;;;;7.90;3.80;;;;;;;;;;4955396;29;20051;-79
2022/12/07 05:00:53;;;;;;;6.57;3.17;;;;;;;;;;4954818;29;20047;-80
2022/12/07 05:03:19;;;;;;;7.97;3.80;;;;;;;;;;4954808;28;20535;-80
2022/12/07 05:05:46;;;;;;;10.70;3.85;;;;;;;;;;4969098;28;20055;-81
2022/12/07 05:08:12;;;;;;;8.13;3.50;;;;;;;;;;4954134;28;20051;-79
2022/12/07 05:10:38;;;;;;;7.88;3.88;;;;;;;;;;4955237;28;20051;-81
2022/12/07 05:13:05;;;;;;;6.80;3.60;;;;;;;;;;4954615;28;20051;-80
2022/12/07 05:15:31;;;;;;;9.73;3.70;;;;;;;;;;4956353;28;20047;-82
2022/12/07 05:17:58;;;;;;;9.27;4.13;;;;;;;;;;4937634;29;20552;-81
2022/12/07 05:20:24;;;;;;;6.18;3.72;;;;;;;;;;4937823;29;20048;-82
2022/12/07 05:22:50;;;;;;;10.52;4.03;;;;;;;;;;4946210;29;20065;-83
2022/12/07 05:25:17;;;;;;;8.13;3.80;;;;;;;;;;4949772;28;20101;-82
2022/12/07 05:27:43;;;;;;;7.10;4.00;;;;;;;;;;4957031;28;20047;-82
2022/12/07 05:30:10;;;;;;;8.00;4.22;;;;;;;;;;4959618;28;20062;-82
2022/12/07 05:32:36;;;;;;;9.32;4.72;;;;;;;;;;4959546;29;20052;-83
2022/12/07 05:35:04;;;;;;;8.73;4.53;;;;;;;;;;4960919;29;20059;-81
2022/12/07 05:37:31;;;;;;;11.73;4.95;;;;;;;;;;4959561;29;20061;-82
2022/12/07 05:39:57;;;;;;;11.88;4.80;;;;;;;;;;4958717;29;20200;-84
2022/12/07 05:42:24;;;;;;;10.32;4.60;;;;;;;;;;4960680;28;20135;-82
2022/12/07 05:44:50;;;;;;;11.00;4.93;;;;;;;;;;4960421;28;20102;-81
2022/12/07 05:47:17;;;;;;;8.90;4.80;;;;;;;;;;4968096;28;20047;-81
2022/12/07 05:49:43;;;;;;;10.25;5.25;;;;;;;;;;4970660;28;20127;-83
2022/12/07 05:52:10;;;;;;;11.10;5.45;;;;;;;;;;4955913;28;20082;-81
2022/12/07 05:54:36;;;;;;;13.80;5.95;;;;;;;;;;4953037;28;20356;-81
2022/12/07 05:57:02;;;;;;;13.57;6.95;;;;;;;;;;4969371;28;20051;-82
2022/12/07 05:59:29;;;;;;;12.13;7.00;;;;;;;;;;4952180;29;20082;-81
2022/12/07 06:01:56;;;;;;;18.08;8.38;;;;;;;;;;4952788;28;20055;-82
2022/12/07 06:04:24;;;;;;;20.27;9.88;;;;;;;;;;4953563;28;20246;-82
2022/12/07 06:06:51;;;;;;;20.48;10.10;;;;;;;;;;4952065;28;20568;-81
2022/12/07 06:09:18;;;;;;;24.80;11.18;;;;;;;;;;4954304;28;20055;-82
2022/12/07 06:14:29;;;;;;;23.13;11.05;;;;;;;;;;4952940;29;20526;-82
2022/12/07 06:16:56;;;;;;;21.55;10.18;;;;;;;;;;4969206;28;20051;-83
2022/12/07 06:19:22;;;;;;;18.88;9.75;;;;;;;;;;4954566;28;20073;-81
2022/12/07 06:21:49;;;;;;;20.20;10.13;;;;;;;;;;4954525;29;20055;-83
2022/12/07 06:24:16;;;;;;;24.48;11.38;;;;;;;;;;4946277;28;20052;-83
2022/12/07 06:26:42;;;;;;;27.80;12.60;;;;;;;;;;4954125;29;20057;-82
2022/12/07 06:29:09;;;;;;;28.27;13.02;;;;;;;;;;4953415;29;20496;-82
2022/12/07 06:31:36;;;;;;;32.17;13.70;;;;;;;;;;4952969;28;20049;-83
2022/12/07 06:34:08;;;;;;;32.05;13.73;;;;;;;;;;4950080;29;20059;-82
2022/12/07 06:36:34;;;;;;;27.65;12.38;;;;;;;;;;4934927;29;20142;-83
2022/12/07 06:39:01;;;;;;;26.88;12.63;;;;;;;;;;4933082;29;20052;-84
2022/12/07 06:41:27;;;;;;;25.05;11.68;;;;;;;;;;4934359;29;20048;-83
2022/12/07 06:43:54;;;;;;;23.38;10.15;;;;;;;;;;4933852;29;20052;-81
2022/12/07 06:46:22;;;;;;;20.08;9.38;;;;;;;;;;4935394;29;20055;-83
2022/12/07 06:48:48;;;;;;;18.95;9.15;;;;;;;;;;4934698;29;20043;-83
2022/12/07 06:51:16;;;;;;;22.38;8.43;;;;;;;;;;4935682;29;20051;-82
2022/12/07 06:53:42;;;;;;;20.30;9.55;;;;;;;;;;4933952;29;20062;-83
2022/12/07 06:56:09;;;;;;;21.08;8.85;;;;;;;;;;4934279;29;20523;-80
2022/12/07 06:58:37;;;;;;;14.77;7.00;;;;;;;;;;4949399;28;20061;-81
2022/12/07 07:01:08;;;;;;;18.45;8.82;;;;;;;;;;4955068;28;20567;-82
2022/12/07 07:03:35;;;;;;;21.02;9.35;;;;;;;;;;4956552;28;20051;-82
2022/12/07 07:06:01;;;;;;;18.75;8.95;;;;;;;;;;4957966;29;20051;-81
2022/12/07 07:08:27;;;;;;;22.42;9.07;;;;;;;;;;4956904;29;20435;-82
2022/12/07 07:10:54;;;;;;;22.35;8.88;;;;;;;;;;4956151;29;20051;-81
2022/12/07 07:13:20;;;;;;;23.00;9.48;;;;;;;;;;4955180;29;20113;-82
2022/12/07 07:15:47;;;;;;;22.50;10.18;;;;;;;;;;4956436;29;20438;-80
2022/12/07 07:18:13;;;;;;;22.38;10.18;;;;;;;;;;4957647;29;20554;-82
2022/12/07 07:20:39;;;;;;;21.67;9.85;;;;;;;;;;4956696;28;20558;-81
2022/12/07 07:23:06;;;;;;;23.20;10.32;;;;;;;;;;4954973;29;20063;-80
2022/12/07 07:25:33;;;;;;;20.58;9.48;;;;;;;;;;4949177;29;20062;-82
2022/12/07 07:27:59;;;;;;;24.27;10.95;;;;;;;;;;4956706;28;20070;-79
2022/12/07 07:30:26;;;;;;;22.70;10.45;;;;;;;;;;4956120;28;20058;-81
2022/12/07 07:33:02;;;;;;;23.80;10.50;;;;;;;;;;4955510;28;20134;-80
2022/12/07 07:35:29;;;;;;;25.50;10.40;;;;;;;;;;4957956;29;20048;-82
2022/12/07 07:37:56;;;;;;;22.73;9.43;;;;;;;;;;4957699;29;20551;-81
2022/12/07 07:40:22;;;;;;;24.73;10.45;;;;;;;;;;4956088;28;20320;-82
2022/12/07 07:42:50;;;;;;;24.13;10.10;;;;;;;;;;4955243;29;20047;-80
2022/12/07 07:45:17;;;;;;;27.10;10.55;;;;;;;;;;4955671;28;20047;-81
2022/12/07 07:47:43;;;;;;;22.63;10.13;;;;;;;;;;4956347;28;20043;-82
2022/12/07 07:50:13;;;;;;;26.88;9.75;;;;;;;;;;4954262;28;20130;-80
2022/12/07 07:52:40;;;;;;;21.13;10.00;;;;;;;;;;4955824;28;20435;-83
2022/12/07 07:55:08;;;;;;;22.50;9.85;;;;;;;;;;4955877;29;20190;-82
2022/12/07 07:57:35;;;;;;;23.85;10.88;;;;;;;;;;4956283;29;20066;-81
2022/12/07 08:00:08;;;;;;;24.33;10.25;;;;;;;;;;4956360;29;20055;-82
2022/12/07 08:02:35;;;;;;;26.65;10.82;;;;;;;;;;4956703;28;20047;-83
2022/12/07 08:05:02;;;;;;;24.08;10.93;;;;;;;;;;4957148;28;20059;-82
2022/12/07 08:07:28;;;;;;;22.13;9.98;;;;;;;;;;4956573;29;20147;-83
2022/12/07 08:09:55;;;;;;;24.48;10.70;;;;;;;;;;4956640;28;20441;-82
2022/12/07 08:12:21;;;;;;;27.40;11.07;;;;;;;;;;4958449;29;20476;-81
2022/12/07 08:14:47;;;;;;;23.23;9.82;;;;;;;;;;4975682;28;20046;-83
2022/12/07 08:17:14;;;;;;;24.05;9.68;;;;;;;;;;4970212;28;20143;-82
2022/12/07 08:19:40;;;;;;;23.42;10.52;;;;;;;;;;4956592;29;20059;-81
2022/12/07 08:22:07;;;;;;;26.85;10.32;;;;;;;;;;4954901;29;20345;-81
2022/12/07 08:24:34;;;;;;;19.98;10.00;;;;;;;;;;4944932;29;20067;-79
2022/12/07 08:27:00;;;;;;;23.70;9.80;;;;;;;;;;4938568;29;20078;-78
2022/12/07 08:29:26;;;;;;;21.10;9.32;;;;;;;;;;4937727;29;20043;-78
2022/12/07 08:31:53;;;;;;;21.23;8.93;;;;;;;;;;4937645;29;20082;-80
2022/12/07 08:34:19;;;;;;;23.00;9.85;;;;;;;;;;4937321;29;20062;-80
2022/12/07 08:36:46;;;;;;;19.75;9.43;;;;;;;;;;4936783;29;20052;-80
2022/12/07 08:39:12;;;;;;;21.00;9.63;;;;;;;;;;4937504;29;20048;-80
2022/12/07 08:41:58;;;;;;;18.33;8.65;;;;;;;;;;4938147;29;20052;-79
2022/12/07 08:44:25;;;;;;;17.00;8.85;;;;;;;;;;4935050;29;20063;-81
2022/12/07 08:46:55;;;;;;;19.92;8.73;;;;;;;;;;4935772;29;20052;-80
2022/12/07 08:49:26;;;;;;;16.52;8.40;;;;;;;;;;4938693;29;20052;-79
2022/12/07 08:51:54;;;;;;;19.30;7.63;;;;;;;;;;4936705;29;20047;-79
2022/12/07 08:54:21;;;;;;;15.55;7.35;;;;;;;;;;4937136;29;20058;-80
2022/12/07 08:56:47;;;;;;;15.23;7.32;;;;;;;;;;4937306;29;20048;-78
2022/12/07 08:59:19;;;;;;;16.10;8.43;;;;;;;;;;4947906;29;20051;-82
2022/12/07 09:01:46;;;;;;;18.17;8.20;;;;;;;;;;4935863;29;20051;-80
2022/12/07 09:04:12;;;;;;;15.38;6.93;;;;;;;;;;4934653;29;20440;-80
2022/12/07 09:06:39;;;;;;;13.65;7.18;;;;;;;;;;4933555;29;20052;-80
2022/12/07 09:09:06;;;;;;;14.35;7.05;;;;;;;;;;4934408;29;20047;-80
2022/12/07 09:11:32;;;;;;;17.20;6.90;;;;;;;;;;4936794;29;20051;-81
2022/12/07 09:13:59;;;;;;;12.50;6.30;;;;;;;;;;4939789;29;20500;-80
2022/12/07 09:16:25;;;;;;;12.27;5.90;;;;;;;;;;4954229;29;20071;-84
2022/12/07 09:18:52;;;;;;;13.50;5.88;;;;;;;;;;4938980;29;20112;-81
2022/12/07 09:21:18;;;;;;;13.93;5.85;;;;;;;;;;4937894;29;20055;-81
2022/12/07 09:23:45;;;;;;;13.60;6.38;;;;;;;;;;4943519;29;20055;-82
2022/12/07 09:26:11;;;;;;;13.20;5.97;;;;;;;;;;4958256;29;20051;-82
2022/12/07 09:28:38;;;;;;;18.48;6.88;;;;;;;;;;4956558;29;20055;-81
2022/12/07 09:31:05;;;;;;;15.25;6.50;;;;;;;;;;4959281;29;20509;-82
2022/12/07 09:33:54;;;;;;;12.85;5.60;;;;;;;;;;4955465;29;20063;-80
2022/12/07 09:36:20;;;;;;;12.05;6.03;;;;;;;;;;4954546;29;20522;-82
2022/12/07 09:38:46;;;;;;;17.30;6.63;;;;;;;;;;4954198;29;20055;-81
2022/12/07 09:41:13;;;;;;;13.80;6.18;;;;;;;;;;4960425;28;20031;-83
2022/12/07 09:43:40;;;;;;;11.65;5.78;;;;;;;;;;4974551;28;20118;-83
2022/12/07 09:46:09;;;;;;;11.35;5.68;;;;;;;;;;4970527;28;20130;-83
2022/12/07 09:48:38;;;;;;;13.82;5.82;;;;;;;;;;4973298;28;20130;-82
2022/12/07 09:51:14;;;;;;;13.40;6.25;;;;;;;;;;4974311;28;20034;-84
2022/12/07 09:53:48;;;;;;;11.48;5.43;;;;;;;;;;4961035;28;20047;-81
2022/12/07 09:56:16;;;;;;;15.77;6.30;;;;;;;;;;4951056;28;20066;-81
2022/12/07 09:58:43;;;;;;;14.68;6.53;;;;;;;;;;4951103;29;20062;-80
2022/12/07 10:01:12;;;;;;;14.52;6.03;;;;;;;;;;4952345;29;20051;-80
2022/12/07 10:03:40;;;;;;;14.13;6.30;;;;;;;;;;4950988;28;20074;-81
2022/12/07 10:06:06;;;;;;;15.60;6.13;;;;;;;;;;4952559;29;20047;-81
2022/12/07 10:08:35;;;;;;;25.10;6.18;;;;;;;;;;4952590;28;20055;-81
2022/12/07 10:11:03;;;;;;;14.35;6.68;;;;;;;;;;4950903;28;20055;-83
2022/12/07 10:13:37;;;;;;;11.75;5.88;;;;;;;;;;4951800;28;20059;-81
2022/12/07 10:16:04;;;;;;;18.15;5.78;;;;;;;;;;4953756;29;20130;-79
2022/12/07 10:18:37;;;;;;;16.45;6.28;;;;;;;;;;4953814;28;20069;-79
2022/12/07 10:21:09;;;;;;;14.60;6.40;;;;;;;;;;4953396;29;20047;-81
2022/12/07 10:23:55;;;;;;;12.65;5.80;;;;;;;;;;4953064;29;20073;-81
2022/12/07 10:26:31;;;;;;;14.25;7.00;;;;;;;;;;4955364;29;20047;-81
2022/12/07 10:29:04;;;;;;;16.52;6.53;;;;;;;;;;4955986;29;20055;-81
2022/12/07 10:31:30;;;;;;;14.43;6.38;;;;;;;;;;4956072;29;20094;-81
2022/12/07 10:33:58;;;;;;;16.33;7.53;;;;;;;;;;4954985;29;20047;-82
2022/12/07 10:36:24;;;;;;;16.55;5.70;;;;;;;;;;4959643;28;20054;-82
2022/12/07 10:38:53;;;;;;;11.93;6.10;;;;;;;;;;4971942;28;20050;-85
2022/12/07 10:41:20;;;;;;;14.43;5.75;;;;;;;;;;4971796;28;20093;-82
2022/12/07 10:43:53;;;;;;;15.68;5.82;;;;;;;;;;4954497;28;20213;-83
2022/12/07 10:46:20;;;;;;;13.52;5.55;;;;;;;;;;4957623;29;20047;-82
2022/12/07 10:48:46;;;;;;;15.93;5.95;;;;;;;;;;4963757;29;20107;-82
2022/12/07 10:51:21;;;;;;;14.35;5.28;;;;;;;;;;4974500;29;20039;-82
2022/12/07 10:54:06;;;;;;;13.55;5.47;;;;;;;;;;4972490;28;20055;-83
2022/12/07 10:56:44;;;;;;;12.17;5.50;;;;;;;;;;4972691;28;20053;-82
2022/12/07 10:59:42;;;;;;;12.47;4.63;;;;;;;;;;4970922;29;20108;-81
2022/12/07 11:02:14;;;;;;;11.48;5.03;;;;;;;;;;4964263;29;20049;-83
2022/12/07 11:05:01;;;;;;;10.68;5.15;;;;;;;;;;4963210;29;20051;-83
2022/12/07 11:07:31;;;;;;;11.98;4.90;;;;;;;;;;4962428;28;20051;-81
2022/12/07 11:10:00;;;;;;;9.98;4.68;;;;;;;;;;4964923;29;20095;-82
2022/12/07 11:12:47;;;;;;;11.27;4.80;;;;;;;;;;4969170;29;20051;-81
2022/12/07 11:15:16;;;;;;;14.10;5.20;;;;;;;;;;4967839;28;20047;-82
2022/12/07 11:17:56;;;;;;;11.77;4.88;;;;;;;;;;4967540;28;20062;-83
2022/12/07 11:20:31;;;;;;;9.73;4.25;;;;;;;;;;4968325;29;20163;-84
2022/12/07 11:23:03;;;;;;;10.40;4.57;;;;;;;;;;4956298;28;20067;-81
2022/12/07 11:25:34;;;;;;;10.52;4.43;;;;;;;;;;4948144;29;20210;-80
2022/12/07 11:28:00;;;;;;;9.07;4.07;;;;;;;;;;4953667;29;20051;-80
2022/12/07 11:30:31;;;;;;;12.10;4.50;;;;;;;;;;4955317;29;20051;-81
2022/12/07 11:32:57;;;;;;;11.20;4.38;;;;;;;;;;4956558;29;20055;-81
2022/12/07 11:35:34;;;;;;;10.13;3.90;;;;;;;;;;4958658;28;20058;-82
2022/12/07 11:38:21;;;;;;;9.63;4.00;;;;;;;;;;4954156;29;20050;-83
2022/12/07 11:40:56;;;;;;;8.52;3.40;;;;;;;;;;4950545;29;20053;-82
2022/12/07 11:43:31;;;;;;;10.07;3.35;;;;;;;;;;4953136;29;20051;-81
2022/12/07 11:45:58;;;;;;;9.80;3.53;;;;;;;;;;4956443;28;20048;-82
2022/12/07 11:48:37;;;;;;;8.63;3.35;;;;;;;;;;4957747;29;20054;-80
2022/12/07 11:51:06;;;;;;;9.38;3.45;;;;;;;;;;4957177;29;20283;-82
2022/12/07 11:53:52;;;;;;;8.52;3.38;;;;;;;;;;4957341;28;20058;-83
2022/12/07 11:56:23;;;;;;;5.53;2.92;;;;;;;;;;4957331;29;20047;-83
2022/12/07 11:59:00;;;;;;;8.95;3.15;;;;;;;;;;4955189;29;20044;-81
2022/12/07 12:01:34;;;;;;;6.95;3.15;;;;;;;;;;4956754;28;20047;-82
2022/12/07 12:04:10;;;;;;;9.85;3.33;;;;;;;;;;4956301;29;20043;-81
2022/12/07 12:06:41;;;;;;;10.10;3.20;;;;;;;;;;4957509;28;20055;-83
2022/12/07 12:09:19;;;;;;;9.02;3.22;;;;;;;;;;4956772;28;20059;-82
2022/12/07 12:12:19;;;;;;;6.80;3.17;;;;;;;;;;4958968;28;20063;-83
2022/12/07 12:15:26;;;;;;;10.13;3.05;;;;;;;;;;4956376;28;20091;-80
2022/12/07 12:18:07;;;;;;;8.77;2.92;;;;;;;;;;4957937;29;20393;-80
2022/12/07 12:20:42;;;;;;;5.38;3.08;;;;;;;;;;4955646;29;20055;-81
2022/12/07 12:23:33;;;;;;;6.28;2.40;;;;;;;;;;4949435;29;20052;-80
2022/12/07 12:26:01;;;;;;;6.22;2.50;;;;;;;;;;4952533;29;20057;-81
2022/12/07 12:28:37;;;;;;;8.15;2.65;;;;;;;;;;4955999;29;20055;-79
2022/12/07 12:31:05;;;;;;;6.68;2.80;;;;;;;;;;4957421;29;20058;-83
2022/12/07 12:33:32;;;;;;;6.88;2.78;;;;;;;;;;4956634;28;20111;-81
2022/12/07 12:36:16;;;;;;;7.15;2.63;;;;;;;;;;4958830;29;20132;-82
2022/12/07 12:38:58;;;;;;;6.55;2.35;;;;;;;;;;4956962;28;20055;-81
2022/12/07 12:41:38;;;;;;;;;;;;;;;;;;;;;
2022/12/07 12:44:19;;;;;;;5.90;2.60;;;;;;;;;;4954770;29;20077;-80
2022/12/07 12:46:48;;;;;;;6.43;2.10;;;;;;;;;;4960546;29;20049;-82
2022/12/07 12:49:16;;;;;;;6.88;2.47;;;;;;;;;;4956081;29;20050;-81
2022/12/07 12:51:43;;;;;;;9.50;2.42;;;;;;;;;;4954264;29;20580;-80
2022/12/07 12:54:16;;;;;;;5.15;2.22;;;;;;;;;;4953474;28;20054;-81
2022/12/07 12:57:01;;;;;;;6.40;2.30;;;;;;;;;;4961546;28;20041;-83
2022/12/07 12:59:30;;;;;;;4.80;1.77;;;;;;;;;;4975727;28;20069;-83
2022/12/07 13:02:15;;;;;;;7.95;2.60;;;;;;;;;;4975327;28;20131;-83
2022/12/07 13:05:01;;;;;;;3.72;1.70;;;;;;;;;;4960902;29;20051;-81
2022/12/07 13:07:28;;;;;;;;;;;;;;;;;;4957857;29;20082;-79
2022/12/07 13:09:54;;;;;;;8.73;1.90;;;;;;;;;;4953789;29;19999;-79
2022/12/07 13:12:21;;;;;;;6.20;2.30;;;;;;;;;;4954076;29;20051;-80
2022/12/07 13:14:57;;;;;;;5.82;2.20;;;;;;;;;;4953428;28;20043;-79
2022/12/07 13:17:30;;;;;;;5.20;2.25;;;;;;;;;;4955152;28;20059;-80
2022/12/07 13:19:58;;;;;;;4.93;2.20;;;;;;;;;;4953984;29;20156;-79
2022/12/07 13:22:45;;;;;;;4.85;2.30;;;;;;;;;;4951577;29;20067;-81
2022/12/07 13:25:18;;;;;;;5.03;2.08;;;;;;;;;;4944270;29;20085;-78
2022/12/07 13:27:58;;;;;;;7.68;2.13;;;;;;;;;;4955458;29;20130;-80
2022/12/07 13:30:25;;;;;;;7.40;2.25;;;;;;;;;;4953524;29;20051;-82
2022/12/07 13:32:52;;;;;;;6.03;1.90;;;;;;;;;;4955758;28;20043;-79
2022/12/07 13:35:29;;;;;;;3.15;1.45;;;;;;;;;;4957240;29;20047;-81
2022/12/07 13:37:55;;;;;;;4.18;1.70;;;;;;;;;;4956780;29;20055;-79
2022/12/07 13:40:23;;;;;;;7.85;2.45;;;;;;;;;;4955293;28;20051;-81
2022/12/07 13:42:57;;;;;;;5.95;1.90;;;;;;;;;;4955803;28;20085;-80
2022/12/07 13:45:47;;;;;;;6.70;2.20;;;;;;;;;;4956342;29;20066;-82
2022/12/07 13:48:20;;;;;;;7.68;2.05;;;;;;;;;;4958308;29;20051;-82
2022/12/07 13:50:52;;;;;;;6.35;2.92;;;;;;;;;;4958884;29;20051;-83
2022/12/07 13:53:18;;;;;;;10.43;2.60;;;;;;;;;;4958553;29;20050;-81
2022/12/07 13:55:46;;;;;;;6.60;1.60;;;;;;;;;;4962542;29;20051;-81
2022/12/07 13:58:19;;;;;;;5.30;1.80;;;;;;;;;;4958621;29;20071;-80
2022/12/07 14:00:45;;;;;;;7.82;1.80;;;;;;;;;;4957943;29;20059;-82
2022/12/07 14:03:12;;;;;;;5.05;1.90;;;;;;;;;;4957101;29;20141;-81
2022/12/07 14:05:39;;;;;;;6.07;1.70;;;;;;;;;;4958951;28;20147;-81
2022/12/07 14:08:05;;;;;;;6.13;1.70;;;;;;;;;;4955462;28;20143;-79
2022/12/07 14:10:36;;;;;;;4.38;1.83;;;;;;;;;;4959660;29;20047;-83
2022/12/07 14:13:22;;;;;;;4.35;1.60;;;;;;;;;;4968462;29;20047;-82
2022/12/07 14:15:48;;;;;;;;;;;;;;;;;;4965469;29;20051;-81
2022/12/07 14:18:26;;;;;;;4.10;1.77;;;;;;;;;;4965563;29;19929;-82
2022/12/07 14:21:02;;;;;;;4.68;1.63;;;;;;;;;;4967054;29;20073;-82
2022/12/07 14:23:29;;;;;;;10.27;2.55;;;;;;;;;;4963959;29;20063;-81
2022/12/07 14:26:04;;;;;;;8.82;1.80;;;;;;;;;;4942655;29;20094;-82
2022/12/07 14:28:32;;;;;;;7.70;1.85;;;;;;;;;;4936641;29;20425;-81
2022/12/07 14:30:59;;;;;;;6.38;2.10;;;;;;;;;;4937566;29;20043;-81
2022/12/07 14:33:27;;;;;;;4.32;1.90;;;;;;;;;;4937968;29;20051;-82
2022/12/07 14:35:57;;;;;;;4.95;1.75;;;;;;;;;;4944969;29;20122;-81
2022/12/07 14:38:25;;;;;;;4.45;1.50;;;;;;;;;;4954395;29;20655;-80
2022/12/07 14:40:53;;;;;;;3.60;1.52;;;;;;;;;;4953111;29;20051;-81
2022/12/07 14:43:19;;;;;;;4.32;1.50;;;;;;;;;;4954334;28;20047;-81
2022/12/07 14:45:46;;;;;;;7.43;1.40;;;;;;;;;;4954276;28;20060;-81
2022/12/07 14:48:14;;;;;;;4.97;1.50;;;;;;;;;;4955120;29;20055;-82
2022/12/07 14:51:00;;;;;;;4.53;1.55;;;;;;;;;;4954616;29;20146;-81